Terminal Aerodrome Forecast
Issued by NWS Huntsville, AL

Home | Current Version | Previous Version | Text Only | Print | Product List | Glossary On
Versions: 1 2 3 4 5 6 7 8 9 10 11 12 13 14 15 16 17 18 19 20 21 22 23 24 25 26 27 28 29 30
627
FTUS44 KHUN 191628 AAA
TAFHSV
TAF AMD
KHSV 191628Z 1916/2012 23007KT P6SM VCTS SCT040CB SCT250
      TEMPO 1917/1919 VRB15G25KT 3SM TSRA BR BKN025CB
     FM191900 21007KT P6SM VCTS SCT035CB BKN050
     FM200000 VRB03KT P6SM SCT070 SCT250
      TEMPO 2009/2012 4SM BR=

USA.gov is the U.S. government's official web portal to all federal, state and local government web resources and services.